createdAt,value
2023-01-01T00:03:02.242Z,26.8
2023-01-01T00:08:09.664Z,25.6
2023-01-01T00:13:01.375Z,25.1
2023-01-01T00:18:08.656Z,24.6
2023-01-01T00:23:29.666Z,24.5
2023-01-01T00:28:21.546Z,25.3
2023-01-01T00:33:28.342Z,26.6
2023-01-01T00:38:19.919Z,27.3
2023-01-01T00:43:27.171Z,27.4
2023-01-01T00:48:26.596Z,26.4
2023-01-01T00:53:18.602Z,25.6
2023-01-01T00:58:25.392Z,25.1
2023-01-01T01:03:48.789Z,24.6
2023-01-01T01:09:03.460Z,24.9
2023-01-01T01:14:33.106Z,25.6
2023-01-01T01:19:25.568Z,26.6
2023-01-01T01:24:20.932Z,25.8
2023-01-01T01:29:28.796Z,25.5
2023-01-01T01:34:27.390Z,26.4
2023-01-01T01:39:35.625Z,27.3
2023-01-01T01:44:50.227Z,27.4
2023-01-01T01:50:02.019Z,26.4
2023-01-01T01:54:38.698Z,25.5
2023-01-01T01:59:29.499Z,25.1
2023-01-01T02:04:41.429Z,24.6
2023-01-01T02:09:48.659Z,24.9
2023-01-01T02:14:44.901Z,25.6
2023-01-01T02:19:54.615Z,26.8
2023-01-01T02:24:45.946Z,27.4
2023-01-01T02:29:36.889Z,27.3
2023-01-01T02:34:45.742Z,26
2023-01-01T02:39:37.731Z,25.3
2023-01-01T02:44:32.722Z,24.9
2023-01-01T02:49:27.308Z,24.4
2023-01-01T02:54:19.464Z,24.8
2023-01-01T02:59:24.670Z,25.6
2023-01-01T03:04:17.417Z,26.8
2023-01-01T03:09:24.356Z,27.3
2023-01-01T03:14:31.894Z,27.3
2023-01-01T03:19:24.015Z,25.9
2023-01-01T03:24:35.738Z,25.4
2023-01-01T03:29:43.462Z,24.8
2023-01-01T03:34:50.426Z,24.4
2023-01-01T03:39:57.106Z,24.8
2023-01-01T03:44:33.260Z,25.8
2023-01-01T03:49:41.590Z,26.8
2023-01-01T03:55:03.527Z,27.3
2023-01-01T03:59:24.252Z,27.3
2023-01-01T04:04:32.732Z,26.4
2023-01-01T04:09:47.742Z,25.4
2023-01-01T04:14:54.696Z,25
2023-01-01T04:20:09.601Z,24.5
2023-01-01T04:25:01.281Z,24.8
2023-01-01T04:30:08.283Z,25.4
2023-01-01T04:35:15.101Z,25.2
2023-01-01T04:40:06.335Z,25.4
2023-01-01T04:44:57.761Z,25.3
2023-01-01T04:50:05.937Z,26.5
2023-01-01T04:55:12.634Z,27.3
2023-01-01T05:00:03.164Z,27.2
2023-01-01T05:04:55.948Z,26.1
2023-01-01T05:10:18.560Z,25.4
2023-01-01T05:15:40.846Z,24.8
2023-01-01T05:20:47.816Z,24.3
2023-01-01T05:26:16.392Z,24.8
2023-01-01T05:31:46.351Z,26
2023-01-01T05:36:37.587Z,27
2023-01-01T05:42:00.039Z,27.3
2023-01-01T05:47:22.921Z,27.1
2023-01-01T05:52:29.677Z,25.6
2023-01-01T05:57:36.649Z,25.1
2023-01-01T06:02:51.627Z,24.5
2023-01-01T06:08:21.176Z,24.5
2023-01-01T06:13:46.549Z,25.3
2023-01-01T06:19:09.431Z,26.6
2023-01-01T06:24:16.740Z,27.3
2023-01-01T06:29:40.811Z,27.3
2023-01-01T06:35:03.855Z,26.3
2023-01-01T06:40:27.942Z,25.4
2023-01-01T06:45:55.493Z,24.9
2023-01-01T06:51:17.593Z,24.4
2023-01-01T06:56:13.889Z,24.8
2023-01-01T07:01:44.271Z,25.7
2023-01-01T07:07:08.958Z,26.7
2023-01-01T07:12:36.550Z,26.4
2023-01-01T07:17:59.675Z,26.1
2023-01-01T07:23:27.581Z,25.9
2023-01-01T07:28:49.319Z,27.1
2023-01-01T07:34:12.479Z,27.4
2023-01-01T07:39:34.553Z,26.3
2023-01-01T07:44:58.758Z,25.4
2023-01-01T07:50:06.510Z,24.9
2023-01-01T07:55:31.846Z,24.4
2023-01-01T08:01:01.358Z,24.9
2023-01-01T08:06:30.776Z,26.1
2023-01-01T08:11:54.042Z,27.1
2023-01-01T08:17:16.949Z,27.3
2023-01-01T08:22:46.923Z,26.4
2023-01-01T08:28:09.363Z,25.4
2023-01-01T08:33:35.961Z,24.9
2023-01-01T08:38:44.044Z,24.3
2023-01-01T08:44:10.805Z,24.8
2023-01-01T08:49:38.215Z,25.9
2023-01-01T08:55:00.770Z,27.1
2023-01-01T09:00:28.731Z,27.4
2023-01-01T09:05:56.513Z,26.7
2023-01-01T09:11:10.382Z,25.4
2023-01-01T09:16:34.208Z,24.9
2023-01-01T09:21:58.355Z,24.4
2023-01-01T09:27:21.143Z,24.8
2023-01-01T09:32:49.478Z,25.8
2023-01-01T09:38:13.682Z,27.1
2023-01-01T09:43:40.192Z,27.3
2023-01-01T09:49:03.964Z,27
2023-01-01T09:54:35.223Z,25.7
2023-01-01T09:59:49.977Z,26.8
2023-01-01T10:05:03.614Z,27.4
2023-01-01T10:10:10.536Z,27.3
2023-01-01T10:15:34.332Z,26.4
2023-01-01T10:20:56.852Z,25.9
2023-01-01T10:26:08.911Z,27.3
2023-01-01T10:31:44.674Z,27.5
2023-01-01T10:36:54.687Z,27.2
2023-01-01T10:42:23.307Z,25.8
2023-01-01T10:47:54.115Z,26.7
2023-01-01T10:53:17.183Z,27.6
2023-01-01T10:58:42.071Z,27.4
2023-01-01T11:04:07.226Z,27
2023-01-01T11:09:37.611Z,25.9
2023-01-01T11:15:51.685Z,27.4
2023-01-01T11:21:17.353Z,27.6
2023-01-01T11:26:40.357Z,27.2
2023-01-01T11:31:47.103Z,25.9
2023-01-01T11:37:09.779Z,26.9
2023-01-01T11:47:52.437Z,27.6
2023-01-01T11:53:15.360Z,27.1
2023-01-01T11:58:37.997Z,25.9
2023-01-01T12:04:06.618Z,27.4
2023-01-01T12:09:34.721Z,27.9
2023-01-01T12:15:03.927Z,27.4
2023-01-01T12:20:26.660Z,26.6
2023-01-01T12:25:50.014Z,26.3
2023-01-01T12:41:26.449Z,27.4
2023-01-01T12:46:39.394Z,26.2
2023-01-01T12:52:06.586Z,26.8
2023-01-01T12:57:14.602Z,28
2023-01-01T13:02:23.615Z,27.8
2023-01-01T13:07:52.936Z,27.4
2023-01-01T13:13:06.206Z,26.2
2023-01-01T13:18:29.367Z,27.6
2023-01-01T13:23:51.939Z,27.9
2023-01-01T13:29:03.482Z,27.6
2023-01-01T13:34:15.535Z,26.4
2023-01-01T13:39:37.500Z,27
2023-01-01T13:45:03.347Z,28.1
2023-01-01T13:50:47.872Z,27.9
2023-01-01T13:56:22.627Z,27
2023-01-01T14:01:46.245Z,26.8
2023-01-01T14:06:54.420Z,28.2
2023-01-01T14:12:56.667Z,28
2023-01-01T14:18:19.872Z,27.5
2023-01-01T14:23:42.842Z,26.6
2023-01-01T14:29:05.863Z,28
2023-01-01T14:34:32.981Z,28.1
2023-01-01T14:40:00.648Z,27.6
2023-01-01T14:45:22.848Z,26.5
2023-01-01T14:55:56.996Z,28.1
2023-01-01T15:01:26.837Z,27.6
2023-01-01T15:06:53.360Z,26.4
2023-01-01T15:12:18.813Z,27.2
2023-01-01T15:17:48.751Z,28.1
2023-01-01T15:22:56.000Z,27.8
2023-01-01T15:28:19.039Z,27.3
2023-01-01T15:33:48.939Z,26.3
2023-01-01T15:39:11.961Z,27.7
2023-01-01T15:49:42.172Z,27.4
2023-01-01T15:55:10.948Z,26.2
2023-01-01T16:00:18.085Z,26.9
2023-01-01T16:05:48.272Z,27.8
2023-01-01T16:11:15.337Z,27.4
2023-01-01T16:16:39.514Z,26.5
2023-01-01T16:21:46.564Z,26.4
2023-01-01T16:26:58.212Z,27.7
2023-01-01T16:32:11.212Z,27.6
2023-01-01T16:37:39.686Z,27.2
2023-01-01T16:43:09.595Z,26.1
2023-01-01T16:48:34.203Z,27.2
2023-01-01T16:53:50.843Z,27.8
2023-01-01T16:59:57.083Z,27.4
2023-01-01T17:05:21.239Z,26.5
2023-01-01T17:10:46.001Z,26.7
2023-01-01T17:16:12.194Z,27.9
2023-01-01T17:22:06.255Z,27.7
2023-01-01T17:27:34.760Z,26.1
2023-01-01T17:32:42.477Z,25.6
2023-01-01T17:37:52.968Z,25.1
2023-01-01T17:43:05.756Z,24.7
2023-01-01T17:48:29.118Z,25.5
2023-01-01T17:53:37.618Z,27.1
2023-01-01T17:59:06.623Z,27.6
2023-01-01T18:04:15.531Z,27.1
2023-01-01T18:09:50.278Z,25.8
2023-01-01T18:14:26.152Z,25.4
2023-01-01T18:19:49.143Z,24.9
2023-01-01T18:25:14.467Z,24.6
2023-01-01T18:30:45.056Z,25.4
2023-01-01T18:35:52.899Z,27.1
2023-01-01T18:41:15.777Z,27.5
2023-01-01T18:46:44.826Z,26.8
2023-01-01T18:51:52.465Z,25.7
2023-01-01T18:56:59.674Z,25.3
2023-01-01T19:02:15.465Z,24.8
2023-01-01T19:07:39.092Z,24.8
2023-01-01T19:13:03.850Z,25.6
2023-01-01T19:18:11.347Z,27.1
2023-01-01T19:23:34.103Z,27.4
2023-01-01T19:28:43.260Z,26.8
2023-01-01T19:34:06.293Z,26.4
2023-01-01T19:39:29.703Z,27.6
2023-01-01T19:44:59.378Z,27.6
2023-01-01T19:50:28.566Z,26.2
2023-01-01T19:55:51.527Z,25.6
2023-01-01T20:01:14.999Z,25.1
2023-01-01T20:07:53.974Z,24.7
2023-01-01T20:13:16.751Z,25.4
2023-01-01T20:18:24.435Z,26.9
2023-01-01T20:23:36.152Z,27.5
2023-01-01T20:29:03.024Z,27.4
2023-01-01T20:34:26.089Z,25.9
2023-01-01T20:39:48.779Z,25.4
2023-01-01T20:44:56.186Z,24.8
2023-01-01T20:50:19.167Z,24.5
2023-01-01T20:55:41.333Z,25.2
2023-01-01T21:01:32.602Z,26.7
2023-01-01T21:06:24.944Z,25.9
2023-01-01T21:11:32.017Z,25.6
2023-01-01T21:16:55.942Z,26.9
2023-01-01T21:21:47.883Z,27.6
2023-01-01T21:27:27.941Z,27.4
2023-01-01T21:32:43.237Z,25.9
2023-01-01T21:37:34.738Z,25.4
2023-01-01T21:42:29.581Z,24.9
2023-01-01T21:47:36.657Z,24.6
2023-01-01T21:53:03.979Z,25.1
2023-01-01T21:57:55.645Z,26.5
2023-01-01T22:03:23.533Z,27.3
2023-01-01T22:09:28.551Z,27.4
2023-01-01T22:14:51.558Z,26.1
2023-01-01T22:20:03.416Z,25.5
2023-01-01T22:25:31.949Z,24.9
2023-01-01T22:30:38.369Z,24.4
2023-01-01T22:36:01.157Z,25
2023-01-01T22:41:31.711Z,26.3
2023-01-01T22:46:39.520Z,27.3
2023-01-01T22:52:03.025Z,27.4
2023-01-01T22:56:55.798Z,26.6
2023-01-01T23:02:02.938Z,25.6
2023-01-01T23:07:10.855Z,25.1
2023-01-01T23:12:25.607Z,24.6
2023-01-01T23:17:36.706Z,24.7
2023-01-01T23:22:50.906Z,25.3
2023-01-01T23:28:14.359Z,26.7
2023-01-01T23:33:23.364Z,27.3
2023-01-01T23:38:44.867Z,27.3
2023-01-01T23:44:15.929Z,26.1
2023-01-01T23:49:38.775Z,25.4
2023-01-01T23:54:44.966Z,24.9
